sensor_id;sensor_type;location;lat;lon;timestamp;P1;durP1;ratioP1;P2;durP2;ratioP2
74320;SDS011;62738;45.772;4.804;2022-10-16T00:02:08;6.65;;;2.88;;
74320;SDS011;62738;45.772;4.804;2022-10-16T00:04:35;5.63;;;2.85;;
74320;SDS011;62738;45.772;4.804;2022-10-16T00:07:03;6.60;;;2.95;;
74320;SDS011;62738;45.772;4.804;2022-10-16T00:09:30;6.70;;;3.00;;
74320;SDS011;62738;45.772;4.804;2022-10-16T00:11:57;5.20;;;3.03;;
74320;SDS011;62738;45.772;4.804;2022-10-16T00:14:23;8.30;;;3.85;;
74320;SDS011;62738;45.772;4.804;2022-10-16T00:16:50;5.13;;;3.00;;
74320;SDS011;62738;45.772;4.804;2022-10-16T00:19:18;7.40;;;3.30;;
74320;SDS011;62738;45.772;4.804;2022-10-16T00:21:49;8.00;;;2.92;;
74320;SDS011;62738;45.772;4.804;2022-10-16T00:24:15;9.98;;;3.58;;
74320;SDS011;62738;45.772;4.804;2022-10-16T00:26:42;5.05;;;2.78;;
74320;SDS011;62738;45.772;4.804;2022-10-16T00:29:09;5.65;;;3.03;;
74320;SDS011;62738;45.772;4.804;2022-10-16T00:31:36;7.75;;;2.53;;
74320;SDS011;62738;45.772;4.804;2022-10-16T00:34:03;7.00;;;2.75;;
74320;SDS011;62738;45.772;4.804;2022-10-16T00:36:29;4.78;;;2.75;;
74320;SDS011;62738;45.772;4.804;2022-10-16T00:38:57;4.88;;;2.78;;
74320;SDS011;62738;45.772;4.804;2022-10-16T00:41:30;8.35;;;2.90;;
74320;SDS011;62738;45.772;4.804;2022-10-16T00:43:58;10.88;;;3.03;;
74320;SDS011;62738;45.772;4.804;2022-10-16T00:49:13;6.03;;;2.55;;
74320;SDS011;62738;45.772;4.804;2022-10-16T00:54:28;9.40;;;2.47;;
74320;SDS011;62738;45.772;4.804;2022-10-16T00:56:58;5.78;;;2.63;;
74320;SDS011;62738;45.772;4.804;2022-10-16T00:59:33;6.22;;;2.72;;
74320;SDS011;62738;45.772;4.804;2022-10-16T01:02:02;7.72;;;2.60;;
74320;SDS011;62738;45.772;4.804;2022-10-16T01:05:03;4.82;;;2.65;;
74320;SDS011;62738;45.772;4.804;2022-10-16T01:07:26;4.70;;;2.60;;
74320;SDS011;62738;45.772;4.804;2022-10-16T01:12:51;4.97;;;2.30;;
74320;SDS011;62738;45.772;4.804;2022-10-16T01:20:33;6.80;;;2.35;;
74320;SDS011;62738;45.772;4.804;2022-10-16T01:23:15;7.93;;;2.85;;
74320;SDS011;62738;45.772;4.804;2022-10-16T01:29:13;6.97;;;2.83;;
74320;SDS011;62738;45.772;4.804;2022-10-16T01:31:47;9.52;;;3.47;;
74320;SDS011;62738;45.772;4.804;2022-10-16T01:34:19;6.95;;;3.30;;
74320;SDS011;62738;45.772;4.804;2022-10-16T01:36:53;7.75;;;2.67;;
74320;SDS011;62738;45.772;4.804;2022-10-16T01:39:24;4.80;;;2.40;;
74320;SDS011;62738;45.772;4.804;2022-10-16T01:41:59;12.43;;;3.47;;
74320;SDS011;62738;45.772;4.804;2022-10-16T01:44:31;5.38;;;3.03;;
74320;SDS011;62738;45.772;4.804;2022-10-16T01:46:59;4.70;;;2.28;;
74320;SDS011;62738;45.772;4.804;2022-10-16T01:49:27;4.00;;;2.22;;
74320;SDS011;62738;45.772;4.804;2022-10-16T01:51:58;4.07;;;2.28;;
74320;SDS011;62738;45.772;4.804;2022-10-16T01:54:28;4.00;;;2.47;;
74320;SDS011;62738;45.772;4.804;2022-10-16T01:56:57;6.78;;;2.45;;
74320;SDS011;62738;45.772;4.804;2022-10-16T01:59:25;4.40;;;2.42;;
74320;SDS011;62738;45.772;4.804;2022-10-16T02:01:55;5.47;;;2.83;;
74320;SDS011;62738;45.772;4.804;2022-10-16T02:04:29;3.63;;;2.30;;
74320;SDS011;62738;45.772;4.804;2022-10-16T02:07:00;5.22;;;2.47;;
74320;SDS011;62738;45.772;4.804;2022-10-16T02:09:27;6.38;;;3.10;;
74320;SDS011;62738;45.772;4.804;2022-10-16T02:11:54;7.47;;;3.05;;
74320;SDS011;62738;45.772;4.804;2022-10-16T02:14:23;6.32;;;3.30;;
74320;SDS011;62738;45.772;4.804;2022-10-16T02:16:51;3.80;;;2.47;;
74320;SDS011;62738;45.772;4.804;2022-10-16T02:19:17;5.68;;;2.63;;
74320;SDS011;62738;45.772;4.804;2022-10-16T02:27:01;6.07;;;2.47;;
74320;SDS011;62738;45.772;4.804;2022-10-16T02:29:29;5.65;;;2.58;;
74320;SDS011;62738;45.772;4.804;2022-10-16T02:31:59;5.35;;;2.80;;
74320;SDS011;62738;45.772;4.804;2022-10-16T02:34:30;7.28;;;2.65;;
74320;SDS011;62738;45.772;4.804;2022-10-16T02:36:59;6.38;;;2.80;;
74320;SDS011;62738;45.772;4.804;2022-10-16T02:39:30;7.13;;;3.00;;
74320;SDS011;62738;45.772;4.804;2022-10-16T02:42:01;5.88;;;2.30;;
74320;SDS011;62738;45.772;4.804;2022-10-16T02:44:27;5.85;;;2.50;;
74320;SDS011;62738;45.772;4.804;2022-10-16T02:46:54;5.03;;;2.50;;
74320;SDS011;62738;45.772;4.804;2022-10-16T02:49:21;6.57;;;2.90;;
74320;SDS011;62738;45.772;4.804;2022-10-16T02:51:47;5.88;;;2.60;;
74320;SDS011;62738;45.772;4.804;2022-10-16T02:54:14;6.70;;;2.78;;
74320;SDS011;62738;45.772;4.804;2022-10-16T02:56:40;7.65;;;2.80;;
74320;SDS011;62738;45.772;4.804;2022-10-16T02:59:07;5.90;;;2.38;;
74320;SDS011;62738;45.772;4.804;2022-10-16T03:01:33;4.22;;;2.60;;
74320;SDS011;62738;45.772;4.804;2022-10-16T03:04:02;5.43;;;2.38;;
74320;SDS011;62738;45.772;4.804;2022-10-16T03:06:29;7.53;;;2.80;;
74320;SDS011;62738;45.772;4.804;2022-10-16T03:08:56;6.82;;;2.53;;
74320;SDS011;62738;45.772;4.804;2022-10-16T03:11:23;4.78;;;2.40;;
74320;SDS011;62738;45.772;4.804;2022-10-16T03:13:49;4.55;;;2.28;;
74320;SDS011;62738;45.772;4.804;2022-10-16T03:16:16;6.45;;;2.33;;
74320;SDS011;62738;45.772;4.804;2022-10-16T03:18:55;5.97;;;2.38;;
74320;SDS011;62738;45.772;4.804;2022-10-16T03:21:21;5.05;;;2.78;;
74320;SDS011;62738;45.772;4.804;2022-10-16T03:23:48;6.70;;;2.72;;
74320;SDS011;62738;45.772;4.804;2022-10-16T03:26:14;5.85;;;3.00;;
74320;SDS011;62738;45.772;4.804;2022-10-16T03:28:41;7.43;;;2.65;;
74320;SDS011;62738;45.772;4.804;2022-10-16T03:31:08;7.85;;;2.90;;
74320;SDS011;62738;45.772;4.804;2022-10-16T03:33:34;6.28;;;2.63;;
74320;SDS011;62738;45.772;4.804;2022-10-16T03:36:01;6.95;;;2.85;;
74320;SDS011;62738;45.772;4.804;2022-10-16T03:38:28;5.93;;;2.95;;
74320;SDS011;62738;45.772;4.804;2022-10-16T03:40:58;5.32;;;2.88;;
74320;SDS011;62738;45.772;4.804;2022-10-16T03:43:25;10.20;;;2.70;;
74320;SDS011;62738;45.772;4.804;2022-10-16T03:45:52;6.45;;;2.80;;
74320;SDS011;62738;45.772;4.804;2022-10-16T03:48:18;6.65;;;2.60;;
74320;SDS011;62738;45.772;4.804;2022-10-16T03:50:45;3.60;;;2.35;;
74320;SDS011;62738;45.772;4.804;2022-10-16T03:53:14;6.75;;;2.65;;
74320;SDS011;62738;45.772;4.804;2022-10-16T03:55:42;7.75;;;3.08;;
74320;SDS011;62738;45.772;4.804;2022-10-16T03:58:08;6.53;;;2.63;;
74320;SDS011;62738;45.772;4.804;2022-10-16T04:00:35;4.57;;;2.53;;
74320;SDS011;62738;45.772;4.804;2022-10-16T04:03:05;6.75;;;2.50;;
74320;SDS011;62738;45.772;4.804;2022-10-16T04:05:32;10.32;;;2.83;;
74320;SDS011;62738;45.772;4.804;2022-10-16T04:07:59;4.72;;;2.55;;
74320;SDS011;62738;45.772;4.804;2022-10-16T04:10:25;5.05;;;2.60;;
74320;SDS011;62738;45.772;4.804;2022-10-16T04:12:54;6.25;;;2.92;;
74320;SDS011;62738;45.772;4.804;2022-10-16T04:15:22;6.65;;;3.20;;
74320;SDS011;62738;45.772;4.804;2022-10-16T04:17:49;4.20;;;2.60;;
74320;SDS011;62738;45.772;4.804;2022-10-16T04:20:16;7.95;;;3.00;;
74320;SDS011;62738;45.772;4.804;2022-10-16T04:22:48;7.70;;;2.47;;
74320;SDS011;62738;45.772;4.804;2022-10-16T04:25:15;5.15;;;2.70;;
74320;SDS011;62738;45.772;4.804;2022-10-16T04:27:42;5.13;;;2.70;;
74320;SDS011;62738;45.772;4.804;2022-10-16T04:30:11;4.85;;;2.50;;
74320;SDS011;62738;45.772;4.804;2022-10-16T04:32:38;6.20;;;2.72;;
74320;SDS011;62738;45.772;4.804;2022-10-16T04:35:05;7.10;;;2.78;;
74320;SDS011;62738;45.772;4.804;2022-10-16T04:37:32;4.07;;;2.40;;
74320;SDS011;62738;45.772;4.804;2022-10-16T04:39:59;6.45;;;2.90;;
74320;SDS011;62738;45.772;4.804;2022-10-16T04:42:25;7.00;;;2.60;;
74320;SDS011;62738;45.772;4.804;2022-10-16T04:44:52;4.60;;;2.92;;
74320;SDS011;62738;45.772;4.804;2022-10-16T04:47:19;5.55;;;2.38;;
74320;SDS011;62738;45.772;4.804;2022-10-16T04:49:45;7.93;;;2.80;;
74320;SDS011;62738;45.772;4.804;2022-10-16T04:52:12;6.00;;;2.90;;
74320;SDS011;62738;45.772;4.804;2022-10-16T04:54:38;5.65;;;2.90;;
74320;SDS011;62738;45.772;4.804;2022-10-16T04:57:05;4.45;;;2.47;;
74320;SDS011;62738;45.772;4.804;2022-10-16T04:59:35;7.65;;;2.90;;
74320;SDS011;62738;45.772;4.804;2022-10-16T05:02:02;5.47;;;2.95;;
74320;SDS011;62738;45.772;4.804;2022-10-16T05:04:29;6.45;;;2.75;;
74320;SDS011;62738;45.772;4.804;2022-10-16T05:06:56;7.95;;;2.78;;
74320;SDS011;62738;45.772;4.804;2022-10-16T05:09:23;6.63;;;2.70;;
74320;SDS011;62738;45.772;4.804;2022-10-16T05:11:50;8.65;;;3.30;;
74320;SDS011;62738;45.772;4.804;2022-10-16T05:14:17;5.80;;;2.85;;
74320;SDS011;62738;45.772;4.804;2022-10-16T05:16:44;7.55;;;2.85;;
74320;SDS011;62738;45.772;4.804;2022-10-16T05:19:13;6.43;;;3.10;;
74320;SDS011;62738;45.772;4.804;2022-10-16T05:21:53;7.95;;;3.15;;
74320;SDS011;62738;45.772;4.804;2022-10-16T05:24:19;5.15;;;2.90;;
74320;SDS011;62738;45.772;4.804;2022-10-16T05:26:46;7.65;;;3.10;;
74320;SDS011;62738;45.772;4.804;2022-10-16T05:29:13;8.10;;;3.17;;
74320;SDS011;62738;45.772;4.804;2022-10-16T05:31:40;7.10;;;3.22;;
74320;SDS011;62738;45.772;4.804;2022-10-16T05:34:07;6.53;;;3.63;;
74320;SDS011;62738;45.772;4.804;2022-10-16T05:36:33;7.28;;;4.00;;
74320;SDS011;62738;45.772;4.804;2022-10-16T05:39:00;8.10;;;3.78;;
74320;SDS011;62738;45.772;4.804;2022-10-16T05:41:26;7.38;;;4.40;;
74320;SDS011;62738;45.772;4.804;2022-10-16T05:43:53;7.05;;;4.05;;
74320;SDS011;62738;45.772;4.804;2022-10-16T05:46:20;9.88;;;3.97;;
74320;SDS011;62738;45.772;4.804;2022-10-16T05:48:46;8.40;;;3.75;;
74320;SDS011;62738;45.772;4.804;2022-10-16T05:51:14;8.07;;;4.03;;
74320;SDS011;62738;45.772;4.804;2022-10-16T05:53:41;6.45;;;3.80;;
74320;SDS011;62738;45.772;4.804;2022-10-16T05:56:12;5.80;;;3.78;;
74320;SDS011;62738;45.772;4.804;2022-10-16T05:58:39;8.02;;;4.05;;
74320;SDS011;62738;45.772;4.804;2022-10-16T06:01:08;5.85;;;3.60;;
74320;SDS011;62738;45.772;4.804;2022-10-16T06:03:37;5.95;;;3.45;;
74320;SDS011;62738;45.772;4.804;2022-10-16T06:06:07;7.65;;;3.45;;
74320;SDS011;62738;45.772;4.804;2022-10-16T06:08:37;7.68;;;3.45;;
74320;SDS011;62738;45.772;4.804;2022-10-16T06:11:05;7.72;;;3.72;;
74320;SDS011;62738;45.772;4.804;2022-10-16T06:13:34;5.40;;;3.70;;
74320;SDS011;62738;45.772;4.804;2022-10-16T06:16:01;7.80;;;4.03;;
74320;SDS011;62738;45.772;4.804;2022-10-16T06:18:29;6.57;;;3.70;;
74320;SDS011;62738;45.772;4.804;2022-10-16T06:20:56;7.63;;;3.97;;
74320;SDS011;62738;45.772;4.804;2022-10-16T06:23:24;6.97;;;3.72;;
74320;SDS011;62738;45.772;4.804;2022-10-16T06:25:51;7.13;;;4.15;;
74320;SDS011;62738;45.772;4.804;2022-10-16T06:28:17;7.75;;;4.40;;
74320;SDS011;62738;45.772;4.804;2022-10-16T06:30:44;7.32;;;4.13;;
74320;SDS011;62738;45.772;4.804;2022-10-16T06:33:11;7.72;;;4.55;;
74320;SDS011;62738;45.772;4.804;2022-10-16T06:35:38;7.97;;;4.20;;
74320;SDS011;62738;45.772;4.804;2022-10-16T06:38:05;7.72;;;4.28;;
74320;SDS011;62738;45.772;4.804;2022-10-16T06:40:32;10.75;;;4.50;;
74320;SDS011;62738;45.772;4.804;2022-10-16T06:42:58;7.72;;;4.40;;
74320;SDS011;62738;45.772;4.804;2022-10-16T06:45:25;8.65;;;4.55;;
74320;SDS011;62738;45.772;4.804;2022-10-16T06:47:51;9.68;;;4.65;;
74320;SDS011;62738;45.772;4.804;2022-10-16T06:50:18;7.32;;;4.53;;
74320;SDS011;62738;45.772;4.804;2022-10-16T06:52:44;9.05;;;5.10;;
74320;SDS011;62738;45.772;4.804;2022-10-16T06:55:11;8.10;;;4.63;;
74320;SDS011;62738;45.772;4.804;2022-10-16T06:57:37;11.45;;;5.00;;
74320;SDS011;62738;45.772;4.804;2022-10-16T07:00:04;7.95;;;4.85;;
74320;SDS011;62738;45.772;4.804;2022-10-16T07:02:31;9.25;;;4.80;;
74320;SDS011;62738;45.772;4.804;2022-10-16T07:04:58;8.52;;;4.70;;
74320;SDS011;62738;45.772;4.804;2022-10-16T07:07:25;8.00;;;4.75;;
74320;SDS011;62738;45.772;4.804;2022-10-16T07:09:52;6.72;;;4.47;;
74320;SDS011;62738;45.772;4.804;2022-10-16T07:12:19;9.07;;;4.63;;
74320;SDS011;62738;45.772;4.804;2022-10-16T07:14:46;6.75;;;4.40;;
74320;SDS011;62738;45.772;4.804;2022-10-16T07:17:12;6.78;;;4.00;;
74320;SDS011;62738;45.772;4.804;2022-10-16T07:19:39;7.57;;;4.32;;
74320;SDS011;62738;45.772;4.804;2022-10-16T07:22:05;5.60;;;4.00;;
74320;SDS011;62738;45.772;4.804;2022-10-16T07:24:32;7.00;;;4.45;;
74320;SDS011;62738;45.772;4.804;2022-10-16T07:26:59;8.10;;;4.30;;
74320;SDS011;62738;45.772;4.804;2022-10-16T07:29:26;7.53;;;4.28;;
74320;SDS011;62738;45.772;4.804;2022-10-16T07:31:52;10.35;;;4.60;;
74320;SDS011;62738;45.772;4.804;2022-10-16T07:34:19;8.20;;;3.95;;
74320;SDS011;62738;45.772;4.804;2022-10-16T07:36:48;5.10;;;3.70;;
74320;SDS011;62738;45.772;4.804;2022-10-16T07:39:16;5.93;;;3.60;;
74320;SDS011;62738;45.772;4.804;2022-10-16T07:41:43;8.40;;;3.65;;
74320;SDS011;62738;45.772;4.804;2022-10-16T07:44:09;5.95;;;3.55;;
74320;SDS011;62738;45.772;4.804;2022-10-16T07:46:36;7.95;;;3.30;;
74320;SDS011;62738;45.772;4.804;2022-10-16T07:49:03;7.60;;;3.70;;
74320;SDS011;62738;45.772;4.804;2022-10-16T07:51:30;6.75;;;3.80;;
74320;SDS011;62738;45.772;4.804;2022-10-16T07:53:57;8.43;;;3.55;;
74320;SDS011;62738;45.772;4.804;2022-10-16T07:56:23;6.18;;;3.25;;
74320;SDS011;62738;45.772;4.804;2022-10-16T07:58:50;5.90;;;3.30;;
74320;SDS011;62738;45.772;4.804;2022-10-16T08:01:17;8.23;;;4.18;;
74320;SDS011;62738;45.772;4.804;2022-10-16T08:03:45;7.35;;;3.20;;
74320;SDS011;62738;45.772;4.804;2022-10-16T08:06:13;7.20;;;3.65;;
74320;SDS011;62738;45.772;4.804;2022-10-16T08:08:40;5.68;;;3.28;;
74320;SDS011;62738;45.772;4.804;2022-10-16T08:11:07;7.90;;;3.72;;
74320;SDS011;62738;45.772;4.804;2022-10-16T08:13:34;6.55;;;3.38;;
74320;SDS011;62738;45.772;4.804;2022-10-16T08:16:01;6.25;;;3.50;;
74320;SDS011;62738;45.772;4.804;2022-10-16T08:18:29;8.95;;;3.50;;
74320;SDS011;62738;45.772;4.804;2022-10-16T08:20:57;5.05;;;3.25;;
74320;SDS011;62738;45.772;4.804;2022-10-16T08:23:26;6.38;;;3.25;;
74320;SDS011;62738;45.772;4.804;2022-10-16T08:25:53;7.60;;;2.92;;
74320;SDS011;62738;45.772;4.804;2022-10-16T08:28:22;5.70;;;2.95;;
74320;SDS011;62738;45.772;4.804;2022-10-16T08:30:49;9.10;;;3.58;;
74320;SDS011;62738;45.772;4.804;2022-10-16T08:33:16;6.47;;;3.13;;
74320;SDS011;62738;45.772;4.804;2022-10-16T08:35:42;5.90;;;3.08;;
74320;SDS011;62738;45.772;4.804;2022-10-16T08:38:16;5.03;;;3.08;;
74320;SDS011;62738;45.772;4.804;2022-10-16T08:40:42;4.97;;;3.03;;
74320;SDS011;62738;45.772;4.804;2022-10-16T08:48:46;5.45;;;2.75;;
74320;SDS011;62738;45.772;4.804;2022-10-16T08:51:22;5.15;;;3.08;;
74320;SDS011;62738;45.772;4.804;2022-10-16T08:53:53;4.78;;;2.60;;
74320;SDS011;62738;45.772;4.804;2022-10-16T08:56:21;7.10;;;3.20;;
74320;SDS011;62738;45.772;4.804;2022-10-16T08:58:48;3.78;;;2.50;;
74320;SDS011;62738;45.772;4.804;2022-10-16T09:01:21;4.15;;;2.53;;
74320;SDS011;62738;45.772;4.804;2022-10-16T09:04:14;7.70;;;2.70;;
74320;SDS011;62738;45.772;4.804;2022-10-16T09:09:42;5.80;;;2.40;;
74320;SDS011;62738;45.772;4.804;2022-10-16T09:15:12;3.60;;;2.55;;
74320;SDS011;62738;45.772;4.804;2022-10-16T09:20:29;5.50;;;2.90;;
74320;SDS011;62738;45.772;4.804;2022-10-16T09:23:16;5.38;;;2.60;;
74320;SDS011;62738;45.772;4.804;2022-10-16T09:25:49;3.53;;;2.15;;
74320;SDS011;62738;45.772;4.804;2022-10-16T09:28:17;5.55;;;2.80;;
74320;SDS011;62738;45.772;4.804;2022-10-16T09:30:44;5.38;;;2.65;;
74320;SDS011;62738;45.772;4.804;2022-10-16T09:33:12;9.48;;;2.70;;
74320;SDS011;62738;45.772;4.804;2022-10-16T09:35:40;5.45;;;2.58;;
74320;SDS011;62738;45.772;4.804;2022-10-16T09:38:09;5.20;;;2.50;;
74320;SDS011;62738;45.772;4.804;2022-10-16T09:40:51;6.78;;;3.00;;
74320;SDS011;62738;45.772;4.804;2022-10-16T09:43:35;5.22;;;2.72;;
74320;SDS011;62738;45.772;4.804;2022-10-16T09:46:08;4.03;;;2.70;;
74320;SDS011;62738;45.772;4.804;2022-10-16T09:48:49;5.60;;;2.85;;
74320;SDS011;62738;45.772;4.804;2022-10-16T09:51:30;3.88;;;2.70;;
74320;SDS011;62738;45.772;4.804;2022-10-16T09:53:59;6.10;;;2.63;;
74320;SDS011;62738;45.772;4.804;2022-10-16T09:56:46;6.25;;;2.58;;
74320;SDS011;62738;45.772;4.804;2022-10-16T09:59:18;7.15;;;2.65;;
74320;SDS011;62738;45.772;4.804;2022-10-16T10:04:22;7.03;;;2.80;;
74320;SDS011;62738;45.772;4.804;2022-10-16T10:06:53;4.68;;;2.53;;
74320;SDS011;62738;45.772;4.804;2022-10-16T10:14:23;5.50;;;2.80;;
74320;SDS011;62738;45.772;4.804;2022-10-16T10:19:53;5.90;;;2.38;;
74320;SDS011;62738;45.772;4.804;2022-10-16T10:38:42;7.93;;;2.65;;
74320;SDS011;62738;45.772;4.804;2022-10-16T11:06:12;4.80;;;2.30;;
74320;SDS011;62738;45.772;4.804;2022-10-16T11:08:48;6.55;;;2.50;;
74320;SDS011;62738;45.772;4.804;2022-10-16T11:11:29;4.25;;;2.05;;
74320;SDS011;62738;45.772;4.804;2022-10-16T11:14:03;4.05;;;1.95;;
74320;SDS011;62738;45.772;4.804;2022-10-16T11:19:41;4.55;;;2.28;;
74320;SDS011;62738;45.772;4.804;2022-10-16T11:22:36;4.38;;;1.80;;
74320;SDS011;62738;45.772;4.804;2022-10-16T11:30:28;7.22;;;2.38;;
74320;SDS011;62738;45.772;4.804;2022-10-16T11:39:18;4.60;;;1.95;;
74320;SDS011;62738;45.772;4.804;2022-10-16T11:55:49;3.35;;;2.13;;
74320;SDS011;62738;45.772;4.804;2022-10-16T11:58:20;5.15;;;2.00;;
74320;SDS011;62738;45.772;4.804;2022-10-16T12:06:10;4.70;;;2.05;;
74320;SDS011;62738;45.772;4.804;2022-10-16T12:08:45;4.85;;;2.15;;
74320;SDS011;62738;45.772;4.804;2022-10-16T12:13:48;6.30;;;1.88;;
74320;SDS011;62738;45.772;4.804;2022-10-16T12:18:43;3.67;;;1.90;;
74320;SDS011;62738;45.772;4.804;2022-10-16T12:21:11;7.60;;;2.17;;
74320;SDS011;62738;45.772;4.804;2022-10-16T12:23:51;6.15;;;2.30;;
74320;SDS011;62738;45.772;4.804;2022-10-16T12:26:26;6.60;;;2.05;;
74320;SDS011;62738;45.772;4.804;2022-10-16T12:28:55;2.88;;;1.80;;
74320;SDS011;62738;45.772;4.804;2022-10-16T12:31:37;2.85;;;1.83;;
74320;SDS011;62738;45.772;4.804;2022-10-16T12:34:29;3.35;;;2.05;;
74320;SDS011;62738;45.772;4.804;2022-10-16T12:37:14;3.78;;;1.90;;
74320;SDS011;62738;45.772;4.804;2022-10-16T12:39:47;5.90;;;2.10;;
74320;SDS011;62738;45.772;4.804;2022-10-16T12:44:54;5.15;;;2.00;;
